Terminal Aerodrome Forecast
Issued by NWS

Home | Current Version | Previous Version | Text Only | Print | Product List | Glossary On
Versions: 1 2 3 4 5 6 7 8 9 10 11 12 13 14 15 16 17 18 19 20
228
FTUS42 KGSP 272143 AAA
TAFAND
TAF AMD
KAND 272143Z 2722/2818 18008KT P6SM VCSH BKN040
      TEMPO 2722/2724 4SM -TSRA OVC020CB
     FM280100 21005KT P6SM BKN030
     FM280800 VRB02KT 4SM BR SCT030
     FM281300 VRB02KT P6SM SCT010=

USA.gov is the U.S. government's official web portal to all federal, state and local government web resources and services.